Latest Coastal Weather Observations for Warrnambool

IDV60701

Issued at 5:52 pm EDT Saturday 29 February 2020 (issued every 10 minutes, with the page automatically refreshed every 10 minutes)

About coastal observations | Map of coastal stations | Coastal observations for VIC | Marine services | Other Formats
Station Details ID: 090186 Name: WARRNAMBOOL AIRPORT NDB Lat: -38.29 Lon: 142.45 Height: 70.8 m
Data from the previous 72 hours. | See also: Recent months at Warrnambool
Date/Time
EDT
Wind Sea
Height
m
Swell Vis
km
Cloud Weather Temp
°C
Press
hPa
Rain since
9am
mm
Dir  Spd
kts
Gust
kts
Height
m
Period
s
Dir
29/05:30pm SSW 9 11 - - - - 10 - - 18.7 1013.7 0.0
29/05:00pm S 9 14 - - - - 10 Partly cloudy - 19.5 1013.7 0.0
29/04:30pm SSW 12 15 - - - - 10 - - 18.8 1013.9 0.0
29/04:00pm SSW 11 15 - - - - 10 Partly cloudy - 19.0 1014.3 0.0
29/03:30pm SSW 9 13 - - - - 10 Partly cloudy - 19.3 1014.5 0.0
29/03:00pm SSW 8 11 - - - - 10 Cloudy - 19.8 1014.7 0.0
29/02:30pm SSW 7 12 - - - - 10 Partly cloudy - 19.6 1015.2 0.0
29/02:00pm SSW 8 12 - - - - 10 Cloudy - 18.5 1015.6 0.0
29/01:30pm W 7 10 - - - - 10 Cloudy - 18.4 1015.8 0.0
29/01:00pm W 7 10 - - - - 10 Cloudy - 18.0 1016.2 0.0
29/12:30pm WNW 7 11 - - - - 10 Cloudy - 17.3 1016.5 0.0
29/12:00pm W 9 12 - - - - 10 Cloudy - 17.0 1016.7 0.0
29/11:40am W 7 10 - - - - 10 Cloudy - 16.9 1016.7 0.0
29/11:30am WNW 7 10 - - - - 10 Cloudy - 16.4 1016.8 0.0
29/11:00am WNW 7 12 - - - - 10 Partly cloudy - 16.2 1016.7 0.0
29/10:30am W 6 7 - - - - 8 Partly cloudy - 15.3 1016.7 0.0
29/10:00am WNW 6 10 - - - - 10 Cloudy - 15.3 1016.6 0.0
29/09:30am NW 9 11 - - - - 10 Cloudy - 14.5 1016.4 0.0
29/09:00am NW 8 10 - - - - 10 Cloudy - 14.2 1016.4 0.0
29/08:30am NW 6 9 - - - - 10 Cloudy - 13.8 1016.3 0.0
29/08:00am NNW 6 8 - - - - 10 Partly cloudy - 13.6 1016.4 0.0
29/07:35am NNW 7 8 - - - - 6 Partly cloudy - 13.3 1016.2 0.0
29/07:30am NW 7 8 - - - - 6 Partly cloudy - 13.3 1016.3 0.0
29/07:20am NW 7 9 - - - - 5 Partly cloudy - 13.2 1016.2 0.0
29/07:00am NW 7 9 - - - - 10 Partly cloudy - 12.7 1015.9 0.0
29/06:30am NW 7 11 - - - - 10 Partly cloudy - 13.0 1015.7 0.0
29/06:00am NW 7 8 - - - - 10 Cloudy - 12.6 1015.6 0.0
29/05:57am NW 7 8 - - - - 10 Partly cloudy - 12.4 1015.5 0.0
29/05:30am NW 7 9 - - - - 10 Partly cloudy - 12.6 1015.4 0.0
29/05:00am NW 7 9 - - - - 10 Partly cloudy - 12.8 1015.5 0.0
29/04:30am NW 6 8 - - - - 10 Partly cloudy - 12.9 1015.7 0.0
29/04:10am NNW 4 5 - - - - 10 Partly cloudy - 13.1 1015.9 0.0
29/04:00am NNW 5 6 - - - - 10 Partly cloudy - 13.1 1016.0 0.0
29/03:30am NW 4 6 - - - - 10 Partly cloudy - 13.1 1016.2 0.0
29/03:21am NW 5 6 - - - - 10 Partly cloudy - 13.1 1016.3 0.0
29/03:00am NW 5 6 - - - - 10 Mostly cloudy - 12.6 1016.5 0.0
29/02:30am WNW 7 9 - - - - 10 Cloudy - 13.7 1016.8 0.0
29/02:00am NW 6 7 - - - - 10 Cloudy - 13.6 1016.8 0.0
29/01:30am NNW 5 6 - - - - 9 Cloudy - 13.6 1016.5 0.0
29/01:00am NW 5 6 - - - - 9 Partly cloudy - 13.8 1016.8 0.0
29/12:30am NNW 5 6 - - - - 10 Partly cloudy - 13.5 1016.8 0.0
29/12:09am WNW 3 5 - - - - 10 Partly cloudy - 13.8 1016.8 0.0
29/12:02am W 4 5 - - - - 8 Partly cloudy - 14.0 1016.9 0.0
29/12:00am W 4 7 - - - - 7 Cloudy - 14.0 1016.9 0.0
 
Date/Time
EDT
Wind Sea
Height
m
Swell Vis
km
Cloud Weather Temp
°C
Press
hPa
Rain since
9am
mm
Dir  Spd
kts
Gust
kts
Height
m
Period
s
Dir
28/11:34pm WNW 7 10 - - - - 5 Partly cloudy - 13.6 1017.1 0.0
28/11:30pm WNW 5 9 - - - - 8 Partly cloudy - 13.4 1017.1 0.0
28/11:00pm WNW 3 5 - - - - 9 Partly cloudy - 12.1 1016.9 0.0
28/10:30pm WNW 5 6 - - - - 9 Partly cloudy - 13.3 1017.1 0.0
28/10:00pm WSW 6 8 - - - - 10 - - 13.1 1016.9 0.0
28/09:30pm WSW 7 9 - - - - 10 - - 13.7 1016.8 0.0
28/09:00pm SW 8 10 - - - - 9 - - 14.0 1016.5 0.0
28/08:30pm SW 8 11 - - - - 10 - - 14.4 1016.2 0.0
28/08:00pm SW 11 15 - - - - 10 - - 15.3 1016.1 0.0
28/07:30pm SW 13 16 - - - - 10 Partly cloudy - 15.9 1016.0 0.0
28/07:00pm SW 14 17 - - - - 10 Partly cloudy - 16.4 1016.0 0.0
28/06:30pm SW 13 15 - - - - 10 Partly cloudy - 16.7 1015.9 0.0
28/06:00pm SW 15 18 - - - - 10 - - 18.0 1015.7 0.0
28/05:30pm SW 16 21 - - - - 10 Partly cloudy - 18.0 1015.5 0.0
28/05:00pm SW 14 17 - - - - 10 Partly cloudy - 17.9 1015.2 0.0
28/04:30pm SW 14 18 - - - - 10 Partly cloudy - 18.4 1015.5 0.0
28/04:00pm SW 14 18 - - - - 10 Partly cloudy - 18.5 1015.6 0.0
28/03:30pm SW 14 19 - - - - 10 Partly cloudy - 17.9 1015.9 0.0
28/03:00pm SW 13 18 - - - - 10 Cloudy - 18.6 1015.9 0.0
28/02:30pm SW 11 15 - - - - 10 Partly cloudy - 18.2 1016.1 0.0
28/02:00pm SW 12 16 - - - - 10 Partly cloudy - 17.8 1016.4 0.0
28/01:30pm SW 11 16 - - - - 10 Partly cloudy - 18.4 1016.5 0.0
28/01:00pm SW 12 15 - - - - 10 Cloudy - 16.7 1016.6 0.0
28/12:30pm SW 12 17 - - - - 10 Partly cloudy - 17.2 1016.4 0.0
28/12:00pm SW 12 17 - - - - 10 Cloudy - 17.1 1016.5 0.0
28/11:30am WSW 13 18 - - - - 7 Partly cloudy - 15.4 1016.5 0.0
28/11:00am SW 14 18 - - - - 10 Partly cloudy - 16.8 1016.3 0.0
28/10:30am WSW 11 15 - - - - 10 Partly cloudy - 15.9 1016.2 0.0
28/10:00am WSW 10 15 - - - - 10 Partly cloudy - 15.5 1016.0 0.0
28/09:30am W 9 13 - - - - 10 Partly cloudy - 15.1 1015.9 0.0
28/09:00am W 10 13 - - - - 7 Cloudy Rain 13.9 1015.6 3.4
28/08:30am WNW 6 8 - - - - 10 Partly cloudy - 13.4 1015.3 3.2
28/08:00am WNW 6 8 - - - - 7 Partly cloudy - 12.7 1015.1 3.0
28/07:30am WNW 7 9 - - - - 10 Partly cloudy - 12.4 1014.4 3.0
28/07:00am W 7 8 - - - - 10 Partly cloudy - 12.0 1014.0 3.0
28/06:30am W 7 8 - - - - 10 Partly cloudy - 12.2 1013.5 3.0
28/06:00am SW 12 17 - - - - 10 Cloudy Recent precip. 12.6 1013.2 3.0
28/05:49am WSW 15 25 - - - - 10 Partly cloudy - 12.7 1013.3 3.0
28/05:32am WSW 10 12 - - - - 10 Partly cloudy - 12.7 1013.0 3.0
28/05:30am WSW 10 16 - - - - 10 Partly cloudy - 12.8 1013.1 3.0
28/05:19am W 11 19 - - - - 5 Partly cloudy - 12.8 1013.2 3.0
28/05:00am WNW 8 11 - - - - 8 Partly cloudy - 13.0 1012.9 2.8
28/04:30am W 9 11 - - - - 10 Partly cloudy - 13.4 1012.9 2.8
28/04:12am WSW 11 13 - - - - 10 Partly cloudy - 13.1 1012.8 2.8
28/04:02am SW 13 17 - - - - 10 Partly cloudy - 13.2 1012.8 2.8
28/04:00am WSW 13 17 - - - - 10 Partly cloudy - 13.2 1012.8 2.8
28/03:54am WSW 13 17 - - - - 6 Partly cloudy - 13.1 1012.8 2.8
28/03:36am W 15 23 - - - - 5 Partly cloudy - 13.2 1012.8 2.6
28/03:30am W 12 19 - - - - 10 Partly cloudy - 13.3 1012.7 2.6
28/03:00am WSW 11 17 - - - - 10 Cloudy Recent precip. 13.3 1012.6 2.6
28/02:51am WSW 12 16 - - - - 10 Partly cloudy - 13.0 1012.6 2.6
28/02:43am W 13 17 - - - - 8 Partly cloudy - 12.8 1012.5 2.6
28/02:30am WSW 14 23 - - - - 5 Partly cloudy - 13.1 1012.9 2.6
28/02:28am WSW 13 21 - - - - 5 Partly cloudy - 13.3 1012.9 2.6
28/02:26am WSW 12 15 - - - - 7 Partly cloudy - 13.4 1012.8 2.4
28/02:05am W 7 13 - - - - 5 Partly cloudy - 13.4 1012.7 2.0
28/02:00am W 8 10 - - - - 9 Partly cloudy - 13.4 1012.7 2.0
28/01:30am W 10 12 - - - - 10 Partly cloudy - 13.2 1012.6 2.0
28/01:00am W 11 21 - - - - 9 Partly cloudy - 13.1 1012.7 2.0
28/12:45am W 8 10 - - - - 10 Partly cloudy - 13.2 1012.6 2.0
28/12:30am WSW 8 11 - - - - 5 Partly cloudy - 13.3 1012.9 2.0
28/12:28am W 8 11 - - - - 5 Partly cloudy - 13.3 1012.9 2.0
28/12:01am W 11 14 - - - - 10 Partly cloudy - 13.1 1012.6 1.8
28/12:00am W 12 16 - - - - 10 Cloudy Recent precip. 13.1 1012.6 1.8
 
Date/Time
EDT
Wind Sea
Height
m
Swell Vis
km
Cloud Weather Temp
°C
Press
hPa
Rain since
9am
mm
Dir  Spd
kts
Gust
kts
Height
m
Period
s
Dir
27/11:58pm WSW 12 18 - - - - 9 Partly cloudy - 13.1 1012.6 1.8
27/11:40pm W 15 25 - - - - 5 Partly cloudy - 13.3 1012.8 1.8
27/11:36pm W 11 25 - - - - 5 Partly cloudy - 13.5 1012.6 1.6
27/11:32pm W 9 13 - - - - 5 Partly cloudy - 13.5 1012.7 1.6
27/11:30pm W 8 13 - - - - 7 Partly cloudy - 13.5 1012.8 1.6
27/11:00pm W 13 17 - - - - 8 Partly cloudy - 13.4 1012.7 1.6
27/10:35pm W 12 17 - - - - 10 Partly cloudy - 13.1 1012.6 1.6
27/10:30pm W 12 17 - - - - 9 Partly cloudy - 13.2 1012.6 1.6
27/10:15pm W 15 24 - - - - 5 Partly cloudy - 13.4 1012.7 1.4
27/10:00pm W 11 15 - - - - 10 Partly cloudy - 13.8 1012.6 1.4
27/09:57pm W 12 15 - - - - 10 Partly cloudy - 13.8 1012.6 1.4
27/09:30pm W 14 19 - - - - 4 Partly cloudy - 13.9 1012.5 0.8
27/09:07pm WSW 15 20 - - - - 5 Partly cloudy - 14.0 1012.0 0.4
27/09:04pm W 15 20 - - - - 5 Partly cloudy - 14.1 1011.9 0.4
27/09:00pm W 13 19 - - - - 7 Cloudy - 14.3 1011.9 0.0
27/08:30pm W 14 24 - - - - 9 Partly cloudy - 14.4 1011.6 0.0
27/08:21pm W 15 25 - - - - 9 Partly cloudy - 14.4 1011.5 0.0
27/08:00pm W 16 21 - - - - 10 Partly cloudy - 16.4 1011.3 0.0
27/07:30pm W 19 25 - - - - 10 Partly cloudy - 16.6 1011.0 0.0
27/07:00pm W 19 25 - - - - 10 Partly cloudy - 17.1 1011.0 0.0
27/06:30pm W 19 26 - - - - 10 Partly cloudy - 17.7 1011.0 0.0
27/06:00pm W 19 27 - - - - 10 Cloudy - 17.5 1010.9 0.0
27/05:41pm W 20 30 - - - - 10 Partly cloudy - 16.8 1010.9 0.0
27/05:30pm W 21 29 - - - - 10 Partly cloudy - 17.5 1010.7 0.0
27/05:00pm W 22 29 - - - - 10 Cloudy - 18.7 1010.5 0.0
27/04:30pm W 21 27 - - - - 10 Partly cloudy - 18.7 1010.5 0.0
27/04:00pm W 22 32 - - - - 10 Cloudy - 18.9 1010.5 0.0
27/03:30pm W 21 28 - - - - 10 Partly cloudy - 18.7 1010.9 0.0
27/03:00pm W 22 30 - - - - 10 Cloudy - 19.7 1011.0 0.0
27/02:34pm WNW 17 27 - - - - 10 Partly cloudy - 17.8 1011.6 0.0
27/02:30pm WNW 16 24 - - - - 10 Partly cloudy - 17.1 1011.7 0.0
27/02:00pm W 16 22 - - - - 10 Partly cloudy - 17.4 1011.7 0.0
27/01:30pm WNW 16 23 - - - - 10 Partly cloudy - 17.1 1011.9 0.0
27/01:00pm W 17 25 - - - - 10 Partly cloudy - 14.9 1012.5 0.0
27/12:30pm WNW 15 20 - - - - 10 Partly cloudy - 16.5 1012.4 0.0
27/12:00pm WNW 17 23 - - - - 10 Cloudy - 16.1 1012.4 0.0
27/11:30am WNW 16 23 - - - - 10 Cloudy - 16.0 1012.3 0.0
27/11:00am WNW 16 23 - - - - 10 Cloudy - 15.3 1012.4 0.0
27/10:30am WNW 13 19 - - - - 10 Cloudy - 14.7 1012.3 0.0
27/10:00am NW 12 17 - - - - 10 Cloudy - 14.0 1012.5 0.0
27/09:30am NW 13 18 - - - - 10 Cloudy - 13.4 1012.5 0.0
27/09:00am NW 14 17 - - - - 10 Cloudy - 13.1 1012.4 0.0
27/08:30am NW 11 15 - - - - 10 Cloudy - 12.8 1012.4 0.0
27/08:00am NW 10 14 - - - - 10 Cloudy - 12.4 1012.2 0.0
27/07:30am NW 13 16 - - - - 10 Cloudy - 12.0 1011.8 0.0
27/07:00am NW 13 18 - - - - 10 Cloudy - 12.0 1011.6 0.0
27/06:30am NW 11 14 - - - - 10 Cloudy - 11.7 1011.5 0.0
27/06:00am NW 11 14 - - - - 10 Cloudy - 11.5 1011.7 0.0
27/05:30am NW 9 12 - - - - 10 Cloudy - 11.5 1011.7 0.0
27/05:00am WNW 10 16 - - - - 10 Partly cloudy - 11.3 1012.1 0.0
27/04:30am NW 9 12 - - - - 9 Cloudy - 11.2 1012.1 0.0
27/04:00am NW 8 10 - - - - 10 Cloudy - 10.9 1012.3 0.0
27/03:30am NW 7 9 - - - - 10 Partly cloudy - 10.7 1012.5 0.0
27/03:00am NW 7 10 - - - - 10 Cloudy - 10.5 1012.8 0.0
27/02:30am NW 8 10 - - - - 10 Cloudy - 10.3 1012.9 0.0
27/02:00am NW 9 11 - - - - 8 Partly cloudy - 9.8 1013.2 0.0
27/01:30am NW 8 11 - - - - 10 Partly cloudy - 9.7 1013.5 0.0
27/01:00am NW 9 11 - - - - 10 Partly cloudy - 9.0 1013.5 0.0
27/12:30am NW 9 11 - - - - 10 - - 7.7 1013.8 0.0
27/12:00am NW 8 9 - - - - 10 Partly cloudy - 8.6 1013.8 0.0
 
Date/Time
EDT
Wind Sea
Height
m
Swell Vis
km
Cloud Weather Temp
°C
Press
hPa
Rain since
9am
mm
Dir  Spd
kts
Gust
kts
Height
m
Period
s
Dir
26/11:30pm NW 8 9 - - - - 10 Partly cloudy - 8.3 1014.0 0.0
26/11:00pm NW 7 7 - - - - 10 Partly cloudy - 7.8 1014.1 0.0
26/10:30pm WNW 5 7 - - - - 9 Cloudy - 8.9 1014.2 0.0
26/10:00pm WNW 5 7 - - - - 10 Partly cloudy - 9.1 1014.2 0.0
26/09:30pm WNW 6 7 - - - - 10 - - 10.8 1014.0 0.0
26/09:00pm W 6 7 - - - - 10 Partly cloudy - 10.8 1013.8 0.0
26/08:30pm WSW 7 9 - - - - 10 - - 12.0 1013.7 0.0
26/08:00pm WSW 9 11 - - - - 10 Partly cloudy - 13.2 1013.7 0.0
26/07:30pm SW 11 17 - - - - 10 Partly cloudy - 14.5 1013.7 0.0
26/07:00pm SW 13 18 - - - - 10 Partly cloudy - 15.1 1013.5 0.0
26/06:30pm SW 15 18 - - - - 10 - - 15.5 1013.5 0.0
26/06:00pm SW 15 21 - - - - 10 Cloudy - 15.9 1013.5 0.0

Other formats

Comma delimited format used in spreadsheet applications
http://www.bom.gov.au/fwo/IDV60701/IDV60701.94837.axf

JavaScript Object Notation format (JSON) in row-major order
http://www.bom.gov.au/fwo/IDV60701/IDV60701.94837.json

Data quality

Most of these data are generated automatically and are frequently updated. Quality checks on data are not normally performed. It is possible for incorrect values to appear. Refer to information at About Latest Weather Observations and please check the disclaimer before using these data.